world map with LCPH marked

LCPH - Airport

This information may not be accurate or current and is not valid for navigation or flight planning. No warranty of fitness for any purpose is made or implied.

flag of Cyprus

Donate via PayPal

Additional information is available on the NEW Great Circle Mapper

Location
City:  Paphos, Cyprus
Name:Paphos International Airport
ICAO / IATA:LCPH / PFO

Details
Type:Airport (Aerodrome, Airfield)
Use:Public/Civil
Latitude:34°43'05"N (34.718039)
Longitude:32°29'09"E (32.485731)
Datum:WGS 1984
Elevation:41 ft (12 m)
Runways:1
Longest:8858 × 148 ft (2700 × 45 m)

Time
Timezone:UTC+2 (DST+5)
Local Time:

Weather
METAR:LCPH  161900Z 32016KT 9999 SCT030 SCT045 11/02 Q1009
TAF:LCPH  161730Z 1618/1718 35022KT 9999 FEW025 SCT040 BECMG 1710/1712 29015KT

Related Locations
Nearby:
Farthest:RVV: 11684 mi / 18803 km
Raivavae, Tubuai Islands, Austral Islands, PF

Find:

   beyond  
but within

Other Information
Maps:
Sources:

  


 


Great Circle Mapper   Great Circle Mapper
Great Circle Mapper FAQ   Great Circle Mapper FAQ
  Karl's Home Page
KLSē   KLSē Home
   GC on Facebook
Airlines of the World   Airlines of the World
Donate via PayPal


Copyright © 2004-2019, Karl L. Swartz. All rights reserved.
All trademarks mentioned herein belong to their respective owners.

Please see credits for attribution and copyright information.

Karl Swartz <karl@kls2.com>
  Powered by FreeBSD
Valid HTML 4.01!
Labeled with ICRA
hCard Microformat
Geo Microformat